Aleksandr Kosarev — UBXS — position and weather

sailwx.info

Track history (hours):
 
Tides and Currents Weather Stations Pressure Air Temp Water Temp Dewpoint Dewpoint Depression Visibility Wind Speed Wind Dir Waves Ship Positions

Aleksandr Kosarev

Last reported at 2016-Apr-29 07:29 UTC. Time now 2016-May-26 20:23 UTC.
Position N 18°04' W 016°24'.
Warning: this ship's position is 27 days out of date.

Length 120 m; beam 19 m.

Type: Fishing. MMSI: 273526300.

Date/timePositionNaut miles runAvg speedWind from/ knotsBaromVisibWave heightAir tempDewpointWater temp
2016-Apr-29 07:29N 18°04' W 016°24'2 1.7
2016-Apr-29 06:30N 18°04' W 016°26'3 1.5
2016-Apr-29 04:33N 18°07' W 016°25'8 8.1
2016-Apr-29 03:33N 17°59' W 016°26'  
2016-Apr-26 05:27N 27°40' W 015°20'1314.9
2016-Apr-26 04:33N 27°53' W 015°17'1313.3
2016-Apr-26 03:33N 28°06' W 015°22'4 4.0
2016-Apr-26 02:33N 28°09' W 015°25'0 0.0
2016-Apr-26 01:33N 28°09' W 015°25'0 0.0
2016-Apr-26 00:33N 28°09' W 015°25'0 0.0
2016-Apr-25 23:33N 28°09' W 015°25'0 0.0
2016-Apr-25 22:33N 28°09' W 015°25'0 0.0
2016-Apr-25 21:33N 28°09' W 015°25'0 0.0
2016-Apr-25 20:33N 28°09' W 015°25'0 0.0
2016-Apr-25 19:33N 28°09' W 015°25'0 0.0
2016-Apr-25 18:33N 28°09' W 015°25'0 0.0
2016-Apr-25 17:33N 28°09' W 015°25'2 2.3
2016-Apr-25 16:33N 28°07' W 015°24'8 7.9
2016-Apr-25 15:33N 28°10' W 015°15'9 8.9
2016-Apr-25 14:33N 28°14' W 015°06'1413.7
2016-Apr-25 13:33N 28°01' W 015°10'1312.3
2016-Apr-25 12:32N 27°48' W 015°13'0 0.3
2016-Apr-25 11:33N 27°49' W 015°13'10 9.8
2016-Apr-25 10:33N 27°58' W 015°12'7 6.6
2016-Apr-25 09:33N 28°03' W 015°17'9 9.1
2016-Apr-25 08:33N 28°08' W 015°25'0 0.1
2016-Apr-25 07:33N 28°09' W 015°25'0 0.0
2016-Apr-25 06:33N 28°09' W 015°25'0 0.0
2016-Apr-25 05:33N 28°09' W 015°25'0 0.0
2016-Apr-25 04:33N 28°09' W 015°25'0 0.0
2016-Apr-25 03:33N 28°09' W 015°25'0 0.0
2016-Apr-25 02:33N 28°09' W 015°25'0 0.0
2016-Apr-25 01:33N 28°09' W 015°25'0 0.0
2016-Apr-25 00:33N 28°09' W 015°25'0 0.0
2016-Apr-24 23:33N 28°09' W 015°25'0 0.0
2016-Apr-24 22:33N 28°09' W 015°25'0 0.0
2016-Apr-24 21:33N 28°09' W 015°25'0 0.0
2016-Apr-24 20:33N 28°09' W 015°25'0 0.0
2016-Apr-24 19:33N 28°09' W 015°25'0 0.0
2016-Apr-24 18:33N 28°09' W 015°25'0 0.0
2016-Apr-24 17:33N 28°09' W 015°25'0 0.0
2016-Apr-24 16:33N 28°09' W 015°25'0 0.0
2016-Apr-24 15:33N 28°09' W 015°25'0 0.0
2016-Apr-24 14:33N 28°09' W 015°25'0 0.0
2016-Apr-24 13:33N 28°09' W 015°25'0 0.0
2016-Apr-24 12:33N 28°09' W 015°25'0 0.0
2016-Apr-24 11:33N 28°09' W 015°25'0 0.0
2016-Apr-24 10:33N 28°09' W 015°25'0 0.0
2016-Apr-24 09:33N 28°09' W 015°25'0 0.0
2016-Apr-24 08:33N 28°09' W 015°25'0 0.0
2016-Apr-24 07:33N 28°09' W 015°25'0 0.0
2016-Apr-24 06:33N 28°09' W 015°25'0 0.0
2016-Apr-24 05:33N 28°09' W 015°25'0 0.0
2016-Apr-24 04:33N 28°09' W 015°25'0 0.0
2016-Apr-24 03:33N 28°09' W 015°25'0 0.0
2016-Apr-24 02:33N 28°09' W 015°25'0 0.0
2016-Apr-24 01:33N 28°09' W 015°25'0 0.0
2016-Apr-24 00:33N 28°09' W 015°25'0 0.0
2016-Apr-23 23:33N 28°09' W 015°25'0 0.0
2016-Apr-23 22:33N 28°09' W 015°25'0 0.0
2016-Apr-23 21:33N 28°09' W 015°25'0 0.0
2016-Apr-23 20:33N 28°09' W 015°25'0 0.0
2016-Apr-23 19:33N 28°09' W 015°25'0 0.0
2016-Apr-23 18:33N 28°09' W 015°25'0 0.0
2016-Apr-23 17:33N 28°09' W 015°25'0 0.0
2016-Apr-23 16:33N 28°09' W 015°25'0 0.0
2016-Apr-23 15:33N 28°09' W 015°25'0 0.0
2016-Apr-23 14:33N 28°09' W 015°25'0 0.0
2016-Apr-23 13:33N 28°09' W 015°25'0 0.0
2016-Apr-23 12:33N 28°09' W 015°25'0 0.2
2016-Apr-23 11:33N 28°08' W 015°25'0 0.2
2016-Apr-23 10:33N 28°09' W 015°25'0 0.0
2016-Apr-23 09:33N 28°09' W 015°25'0 0.0
2016-Apr-23 08:33N 28°09' W 015°25'0 0.0
2016-Apr-23 07:33N 28°09' W 015°25'0 0.0
2016-Apr-23 06:33N 28°09' W 015°25'0 0.0
2016-Apr-23 05:33N 28°09' W 015°25'0 0.0
2016-Apr-23 04:33N 28°09' W 015°25'0 0.0
2016-Apr-23 03:33N 28°09' W 015°25'0 0.0
2016-Apr-23 02:33N 28°09' W 015°25'0 0.0
2016-Apr-23 01:33N 28°09' W 015°25'0 0.0
2016-Apr-23 00:33N 28°09' W 015°25'0 0.0
2016-Apr-22 23:33N 28°09' W 015°25'0 0.0
2016-Apr-22 22:33N 28°09' W 015°25'0 0.0
2016-Apr-22 21:33N 28°09' W 015°25'0 0.0
2016-Apr-22 20:33N 28°09' W 015°25'0 0.0
2016-Apr-22 19:33N 28°09' W 015°25'0 0.0
2016-Apr-22 18:33N 28°09' W 015°25'0 0.0
2016-Apr-22 17:33N 28°09' W 015°25'0 0.0
2016-Apr-22 16:33N 28°09' W 015°25'0 0.0
2016-Apr-22 15:33N 28°09' W 015°25'0 0.0
2016-Apr-22 14:33N 28°09' W 015°25'0 0.0
2016-Apr-22 13:22N 28°09' W 015°25'0 0.0
2016-Apr-22 12:31N 28°09' W 015°25'0 0.0
2016-Apr-22 11:22N 28°09' W 015°25'0 0.0
2016-Apr-22 10:25N 28°09' W 015°25'0 0.0
2016-Apr-22 09:25N 28°09' W 015°25'0 0.0
2016-Apr-22 08:25N 28°09' W 015°25'0 0.0
2016-Apr-22 07:28N 28°09' W 015°25'0 0.0
2016-Apr-22 06:28N 28°09' W 015°25'0 0.0
2016-Apr-22 05:28N 28°09' W 015°25'0 0.0
2016-Apr-22 04:28N 28°09' W 015°25'0 0.0
2016-Apr-22 03:31N 28°09' W 015°25'0 0.0
2016-Apr-22 02:31N 28°09' W 015°25'0 0.0
2016-Apr-22 01:31N 28°09' W 015°25'0 0.0
2016-Apr-22 00:31N 28°09' W 015°25'0 0.0
2016-Apr-21 23:31N 28°09' W 015°25'0 0.0
2016-Apr-21 22:31N 28°09' W 015°25'0 0.0
2016-Apr-21 21:31N 28°09' W 015°25'0 0.0
2016-Apr-21 20:31N 28°09' W 015°25'0 0.0
2016-Apr-21 19:22N 28°09' W 015°25'0 0.0
2016-Apr-21 18:25N 28°09' W 015°25'0 0.0
2016-Apr-21 17:25N 28°09' W 015°25'0 0.0
2016-Apr-21 16:25N 28°09' W 015°25'0 0.0
2016-Apr-21 15:25N 28°09' W 015°25'0 0.0
2016-Apr-21 14:28N 28°09' W 015°25'0 0.0
2016-Apr-21 13:28N 28°09' W 015°25'0 0.0
2016-Apr-21 12:28N 28°09' W 015°25'0 0.0
2016-Apr-21 11:31N 28°09' W 015°25'0 0.0
2016-Apr-21 10:31N 28°09' W 015°25'0 0.0
2016-Apr-21 09:31N 28°09' W 015°25'0 0.0
2016-Apr-21 08:31N 28°09' W 015°25'0 0.0
2016-Apr-21 07:31N 28°09' W 015°25'0 0.0
2016-Apr-21 06:31N 28°09' W 015°25'0 0.0
2016-Apr-21 05:31N 28°09' W 015°25'0 0.0
2016-Apr-21 04:31N 28°09' W 015°25'0 0.0
2016-Apr-21 03:22N 28°09' W 015°25'0 0.0
2016-Apr-21 02:25N 28°09' W 015°25'0 0.0
2016-Apr-21 01:25N 28°09' W 015°25'0 0.0
2016-Apr-21 00:25N 28°09' W 015°25'0 0.0
2016-Apr-20 22:28N 28°09' W 015°25'0 0.0
2016-Apr-20 21:30N 28°09' W 015°25'0 0.0
2016-Apr-20 20:30N 28°09' W 015°25'0 0.0
2016-Apr-20 19:33N 28°09' W 015°25'0 0.0
2016-Apr-20 18:30N 28°09' W 015°25'0 0.0
2016-Apr-20 17:33N 28°09' W 015°25'0 0.0
2016-Apr-20 16:33N 28°09' W 015°25'0 0.0
2016-Apr-20 15:33N 28°09' W 015°25'0 0.0
2016-Apr-20 14:33N 28°09' W 015°25'0 0.0
2016-Apr-20 13:33N 28°09' W 015°25'0 0.0
2016-Apr-20 12:33N 28°09' W 015°25'0 0.0
2016-Apr-20 11:24N 28°09' W 015°25'0 0.0
2016-Apr-20 10:24N 28°09' W 015°25'0 0.0
2016-Apr-20 09:27N 28°09' W 015°25'0 0.0
2016-Apr-20 08:27N 28°09' W 015°25'0 0.0
2016-Apr-20 07:27N 28°09' W 015°25'0 0.0
2016-Apr-20 06:30N 28°09' W 015°25'0 0.0
2016-Apr-20 05:30N 28°09' W 015°25'0 0.0
2016-Apr-20 04:30N 28°09' W 015°25'0 0.0
2016-Apr-20 03:33N 28°09' W 015°25'0 0.0
2016-Apr-20 02:33N 28°09' W 015°25'0 0.0
2016-Apr-20 01:33N 28°09' W 015°25'0 0.0
2016-Apr-20 00:33N 28°09' W 015°25'0 0.0
2016-Apr-19 23:33N 28°09' W 015°25'0 0.0
2016-Apr-19 22:33N 28°09' W 015°25'0 0.0
2016-Apr-19 21:21N 28°09' W 015°25'0 0.0
2016-Apr-19 20:33N 28°09' W 015°25'0 0.0
2016-Apr-19 19:09N 28°09' W 015°25'0 0.0
2016-Apr-19 18:24N 28°09' W 015°25'0 0.0
2016-Apr-19 17:27N 28°09' W 015°25'0 0.0
2016-Apr-19 16:27N 28°09' W 015°25'0 0.0
2016-Apr-19 15:27N 28°09' W 015°25'0 0.0
2016-Apr-19 14:30N 28°09' W 015°25'0 0.0
2016-Apr-19 13:30N 28°09' W 015°25'0 0.0
2016-Apr-19 12:30N 28°09' W 015°25'0 0.0
2016-Apr-19 11:33N 28°09' W 015°25'0 0.0
2016-Apr-19 10:31N 28°09' W 015°25'0 0.0
2016-Apr-19 09:31N 28°09' W 015°25'0 0.0
2016-Apr-19 08:19N 28°09' W 015°25'0 0.0
2016-Apr-19 07:31N 28°09' W 015°25'  
Track history (hours):
 
Tides and Currents Weather Stations Pressure Air Temp Water Temp Dewpoint Dewpoint Depression Visibility Wind Speed Wind Dir Waves Ship Positions

Aleksandr Kosarev

Last reported at 2016-Apr-29 07:29 UTC. Time now 2016-May-26 20:23 UTC.
Position N 18°04' W 016°24'.
Warning: this ship's position is 27 days out of date.

Length 120 m; beam 19 m.

Type: Fishing. MMSI: 273526300.

Date/timePositionNaut miles runAvg speedWind from/ knotsBaromVisibWave heightAir tempDewpointWater temp
2016-Apr-29 07:29N 18°04' W 016°24'2 1.7
2016-Apr-29 06:30N 18°04' W 016°26'3 1.5
2016-Apr-29 04:33N 18°07' W 016°25'8 8.1
2016-Apr-29 03:33N 17°59' W 016°26'  
2016-Apr-26 05:27N 27°40' W 015°20'1314.9
2016-Apr-26 04:33N 27°53' W 015°17'1313.3
2016-Apr-26 03:33N 28°06' W 015°22'4 4.0
2016-Apr-26 02:33N 28°09' W 015°25'0 0.0
2016-Apr-26 01:33N 28°09' W 015°25'0 0.0
2016-Apr-26 00:33N 28°09' W 015°25'0 0.0
2016-Apr-25 23:33N 28°09' W 015°25'0 0.0
2016-Apr-25 22:33N 28°09' W 015°25'0 0.0
2016-Apr-25 21:33N 28°09' W 015°25'0 0.0
2016-Apr-25 20:33N 28°09' W 015°25'0 0.0
2016-Apr-25 19:33N 28°09' W 015°25'0 0.0
2016-Apr-25 18:33N 28°09' W 015°25'0 0.0
2016-Apr-25 17:33N 28°09' W 015°25'2 2.3
2016-Apr-25 16:33N 28°07' W 015°24'8 7.9
2016-Apr-25 15:33N 28°10' W 015°15'9 8.9
2016-Apr-25 14:33N 28°14' W 015°06'1413.7
2016-Apr-25 13:33N 28°01' W 015°10'1312.3
2016-Apr-25 12:32N 27°48' W 015°13'0 0.3
2016-Apr-25 11:33N 27°49' W 015°13'10 9.8
2016-Apr-25 10:33N 27°58' W 015°12'7 6.6
2016-Apr-25 09:33N 28°03' W 015°17'9 9.1
2016-Apr-25 08:33N 28°08' W 015°25'0 0.1
2016-Apr-25 07:33N 28°09' W 015°25'0 0.0
2016-Apr-25 06:33N 28°09' W 015°25'0 0.0
2016-Apr-25 05:33N 28°09' W 015°25'0 0.0
2016-Apr-25 04:33N 28°09' W 015°25'0 0.0
2016-Apr-25 03:33N 28°09' W 015°25'0 0.0
2016-Apr-25 02:33N 28°09' W 015°25'0 0.0
2016-Apr-25 01:33N 28°09' W 015°25'0 0.0
2016-Apr-25 00:33N 28°09' W 015°25'0 0.0
2016-Apr-24 23:33N 28°09' W 015°25'0 0.0
2016-Apr-24 22:33N 28°09' W 015°25'0 0.0
2016-Apr-24 21:33N 28°09' W 015°25'0 0.0
2016-Apr-24 20:33N 28°09' W 015°25'0 0.0
2016-Apr-24 19:33N 28°09' W 015°25'0 0.0
2016-Apr-24 18:33N 28°09' W 015°25'0 0.0
2016-Apr-24 17:33N 28°09' W 015°25'0 0.0
2016-Apr-24 16:33N 28°09' W 015°25'0 0.0
2016-Apr-24 15:33N 28°09' W 015°25'0 0.0
2016-Apr-24 14:33N 28°09' W 015°25'0 0.0
2016-Apr-24 13:33N 28°09' W 015°25'0 0.0
2016-Apr-24 12:33N 28°09' W 015°25'0 0.0
2016-Apr-24 11:33N 28°09' W 015°25'0 0.0
2016-Apr-24 10:33N 28°09' W 015°25'0 0.0
2016-Apr-24 09:33N 28°09' W 015°25'0 0.0
2016-Apr-24 08:33N 28°09' W 015°25'0 0.0
2016-Apr-24 07:33N 28°09' W 015°25'0 0.0
2016-Apr-24 06:33N 28°09' W 015°25'0 0.0
2016-Apr-24 05:33N 28°09' W 015°25'0 0.0
2016-Apr-24 04:33N 28°09' W 015°25'0 0.0
2016-Apr-24 03:33N 28°09' W 015°25'0 0.0
2016-Apr-24 02:33N 28°09' W 015°25'0 0.0
2016-Apr-24 01:33N 28°09' W 015°25'0 0.0
2016-Apr-24 00:33N 28°09' W 015°25'0 0.0
2016-Apr-23 23:33N 28°09' W 015°25'0 0.0
2016-Apr-23 22:33N 28°09' W 015°25'0 0.0
2016-Apr-23 21:33N 28°09' W 015°25'0 0.0
2016-Apr-23 20:33N 28°09' W 015°25'0 0.0
2016-Apr-23 19:33N 28°09' W 015°25'0 0.0
2016-Apr-23 18:33N 28°09' W 015°25'0 0.0
2016-Apr-23 17:33N 28°09' W 015°25'0 0.0
2016-Apr-23 16:33N 28°09' W 015°25'0 0.0
2016-Apr-23 15:33N 28°09' W 015°25'0 0.0
2016-Apr-23 14:33N 28°09' W 015°25'0 0.0
2016-Apr-23 13:33N 28°09' W 015°25'0 0.0
2016-Apr-23 12:33N 28°09' W 015°25'0 0.2
2016-Apr-23 11:33N 28°08' W 015°25'0 0.2
2016-Apr-23 10:33N 28°09' W 015°25'0 0.0
2016-Apr-23 09:33N 28°09' W 015°25'0 0.0
2016-Apr-23 08:33N 28°09' W 015°25'0 0.0
2016-Apr-23 07:33N 28°09' W 015°25'0 0.0
2016-Apr-23 06:33N 28°09' W 015°25'0 0.0
2016-Apr-23 05:33N 28°09' W 015°25'0 0.0
2016-Apr-23 04:33N 28°09' W 015°25'0 0.0
2016-Apr-23 03:33N 28°09' W 015°25'0 0.0
2016-Apr-23 02:33N 28°09' W 015°25'0 0.0
2016-Apr-23 01:33N 28°09' W 015°25'0 0.0
2016-Apr-23 00:33N 28°09' W 015°25'0 0.0
2016-Apr-22 23:33N 28°09' W 015°25'0 0.0
2016-Apr-22 22:33N 28°09' W 015°25'0 0.0
2016-Apr-22 21:33N 28°09' W 015°25'0 0.0
2016-Apr-22 20:33N 28°09' W 015°25'0 0.0
2016-Apr-22 19:33N 28°09' W 015°25'0 0.0
2016-Apr-22 18:33N 28°09' W 015°25'0 0.0
2016-Apr-22 17:33N 28°09' W 015°25'0 0.0
2016-Apr-22 16:33N 28°09' W 015°25'0 0.0
2016-Apr-22 15:33N 28°09' W 015°25'0 0.0
2016-Apr-22 14:33N 28°09' W 015°25'0 0.0
2016-Apr-22 13:22N 28°09' W 015°25'0 0.0
2016-Apr-22 12:31N 28°09' W 015°25'0 0.0
2016-Apr-22 11:22N 28°09' W 015°25'0 0.0
2016-Apr-22 10:25N 28°09' W 015°25'0 0.0
2016-Apr-22 09:25N 28°09' W 015°25'0 0.0
2016-Apr-22 08:25N 28°09' W 015°25'0 0.0
2016-Apr-22 07:28N 28°09' W 015°25'0 0.0
2016-Apr-22 06:28N 28°09' W 015°25'0 0.0
2016-Apr-22 05:28N 28°09' W 015°25'0 0.0
2016-Apr-22 04:28N 28°09' W 015°25'0 0.0
2016-Apr-22 03:31N 28°09' W 015°25'0 0.0
2016-Apr-22 02:31N 28°09' W 015°25'0 0.0
2016-Apr-22 01:31N 28°09' W 015°25'0 0.0
2016-Apr-22 00:31N 28°09' W 015°25'0 0.0
2016-Apr-21 23:31N 28°09' W 015°25'0 0.0
2016-Apr-21 22:31N 28°09' W 015°25'0 0.0
2016-Apr-21 21:31N 28°09' W 015°25'0 0.0
2016-Apr-21 20:31N 28°09' W 015°25'0 0.0
2016-Apr-21 19:22N 28°09' W 015°25'0 0.0
2016-Apr-21 18:25N 28°09' W 015°25'0 0.0
2016-Apr-21 17:25N 28°09' W 015°25'0 0.0
2016-Apr-21 16:25N 28°09' W 015°25'0 0.0
2016-Apr-21 15:25N 28°09' W 015°25'0 0.0
2016-Apr-21 14:28N 28°09' W 015°25'0 0.0
2016-Apr-21 13:28N 28°09' W 015°25'0 0.0
2016-Apr-21 12:28N 28°09' W 015°25'0 0.0
2016-Apr-21 11:31N 28°09' W 015°25'0 0.0
2016-Apr-21 10:31N 28°09' W 015°25'0 0.0
2016-Apr-21 09:31N 28°09' W 015°25'0 0.0
2016-Apr-21 08:31N 28°09' W 015°25'0 0.0
2016-Apr-21 07:31N 28°09' W 015°25'0 0.0
2016-Apr-21 06:31N 28°09' W 015°25'0 0.0
2016-Apr-21 05:31N 28°09' W 015°25'0 0.0
2016-Apr-21 04:31N 28°09' W 015°25'0 0.0
2016-Apr-21 03:22N 28°09' W 015°25'0 0.0
2016-Apr-21 02:25N 28°09' W 015°25'0 0.0
2016-Apr-21 01:25N 28°09' W 015°25'0 0.0
2016-Apr-21 00:25N 28°09' W 015°25'0 0.0
2016-Apr-20 22:28N 28°09' W 015°25'0 0.0
2016-Apr-20 21:30N 28°09' W 015°25'0 0.0
2016-Apr-20 20:30N 28°09' W 015°25'0 0.0
2016-Apr-20 19:33N 28°09' W 015°25'0 0.0
2016-Apr-20 18:30N 28°09' W 015°25'0 0.0
2016-Apr-20 17:33N 28°09' W 015°25'0 0.0
2016-Apr-20 16:33N 28°09' W 015°25'0 0.0
2016-Apr-20 15:33N 28°09' W 015°25'0 0.0
2016-Apr-20 14:33N 28°09' W 015°25'0 0.0
2016-Apr-20 13:33N 28°09' W 015°25'0 0.0
2016-Apr-20 12:33N 28°09' W 015°25'0 0.0
2016-Apr-20 11:24N 28°09' W 015°25'0 0.0
2016-Apr-20 10:24N 28°09' W 015°25'0 0.0
2016-Apr-20 09:27N 28°09' W 015°25'0 0.0
2016-Apr-20 08:27N 28°09' W 015°25'0 0.0
2016-Apr-20 07:27N 28°09' W 015°25'0 0.0
2016-Apr-20 06:30N 28°09' W 015°25'0 0.0
2016-Apr-20 05:30N 28°09' W 015°25'0 0.0
2016-Apr-20 04:30N 28°09' W 015°25'0 0.0
2016-Apr-20 03:33N 28°09' W 015°25'0 0.0
2016-Apr-20 02:33N 28°09' W 015°25'0 0.0
2016-Apr-20 01:33N 28°09' W 015°25'0 0.0
2016-Apr-20 00:33N 28°09' W 015°25'0 0.0
2016-Apr-19 23:33N 28°09' W 015°25'0 0.0
2016-Apr-19 22:33N 28°09' W 015°25'0 0.0
2016-Apr-19 21:21N 28°09' W 015°25'0 0.0
2016-Apr-19 20:33N 28°09' W 015°25'0 0.0
2016-Apr-19 19:09N 28°09' W 015°25'0 0.0
2016-Apr-19 18:24N 28°09' W 015°25'0 0.0
2016-Apr-19 17:27N 28°09' W 015°25'0 0.0
2016-Apr-19 16:27N 28°09' W 015°25'0 0.0
2016-Apr-19 15:27N 28°09' W 015°25'0 0.0
2016-Apr-19 14:30N 28°09' W 015°25'0 0.0
2016-Apr-19 13:30N 28°09' W 015°25'0 0.0
2016-Apr-19 12:30N 28°09' W 015°25'0 0.0
2016-Apr-19 11:33N 28°09' W 015°25'0 0.0
2016-Apr-19 10:31N 28°09' W 015°25'0 0.0
2016-Apr-19 09:31N 28°09' W 015°25'0 0.0
2016-Apr-19 08:19N 28°09' W 015°25'0 0.0
2016-Apr-19 07:31N 28°09' W 015°25'  

Dump ship's entire track history